createdAt,value
2022-08-07T00:02:37.481Z,101282.00
2022-08-07T00:04:59.333Z,101279.00
2022-08-07T00:07:27.473Z,101266.00
2022-08-07T00:10:25.460Z,101280.00
2022-08-07T00:12:59.685Z,101279.00
2022-08-07T00:15:37.968Z,101281.00
2022-08-07T00:18:19.269Z,101282.00
2022-08-07T00:20:49.634Z,101280.00
2022-08-07T00:23:17.413Z,101269.00
2022-08-07T00:25:45.884Z,101269.00
2022-08-07T00:28:22.199Z,101266.00
2022-08-07T00:30:49.469Z,101274.00
2022-08-07T00:33:17.093Z,101275.00
2022-08-07T00:35:49.434Z,101273.00
2022-08-07T00:38:16.887Z,101275.00
2022-08-07T00:41:00.069Z,101277.00
2022-08-07T00:44:00.388Z,101280.00
2022-08-07T00:46:14.743Z,101278.00
2022-08-07T00:48:42.309Z,101272.00
2022-08-07T00:51:10.652Z,101278.00
2022-08-07T00:53:39.361Z,101276.00
2022-08-07T00:56:18.363Z,101271.00
2022-08-07T00:58:47.176Z,101245.00
2022-08-07T01:01:18.263Z,101275.00
2022-08-07T01:03:57.020Z,101272.00
2022-08-07T01:06:29.524Z,101271.00
2022-08-07T01:09:00.901Z,101263.00
2022-08-07T01:12:09.778Z,101270.00
2022-08-07T01:14:28.256Z,101269.00
2022-08-07T01:16:57.361Z,101249.00
2022-08-07T01:19:27.566Z,101273.00
2022-08-07T01:22:00.815Z,101250.00
2022-08-07T01:24:32.183Z,101265.00
2022-08-07T01:27:01.207Z,101270.00
2022-08-07T01:29:31.238Z,101263.00
2022-08-07T01:31:59.549Z,101263.00
2022-08-07T01:34:31.198Z,101265.00
2022-08-07T01:37:00.408Z,101253.00
2022-08-07T01:39:39.678Z,101262.00
2022-08-07T01:42:38.556Z,101258.00
2022-08-07T01:45:09.883Z,101261.00
2022-08-07T01:48:17.857Z,101264.00
2022-08-07T01:50:32.748Z,101255.00
2022-08-07T01:53:02.217Z,101258.00
2022-08-07T01:55:47.103Z,101262.00
2022-08-07T01:58:29.085Z,101268.00
2022-08-07T02:01:25.448Z,101266.00
2022-08-07T02:04:08.914Z,101260.00
2022-08-07T02:06:39.859Z,101258.00
2022-08-07T02:09:12.030Z,101255.00
2022-08-07T02:12:17.591Z,101262.00
2022-08-07T02:14:53.037Z,101265.00
2022-08-07T02:17:27.523Z,101260.00
2022-08-07T02:20:09.922Z,101258.00
2022-08-07T02:22:45.415Z,101265.00
2022-08-07T02:25:18.069Z,101264.00
2022-08-07T02:27:51.188Z,101268.00
2022-08-07T02:30:20.319Z,101242.00
2022-08-07T02:33:04.017Z,101245.00
2022-08-07T02:36:27.031Z,101247.00
2022-08-07T02:38:32.855Z,101273.00
2022-08-07T02:41:04.052Z,101259.00
2022-08-07T02:43:34.860Z,101263.00
2022-08-07T02:46:05.061Z,101274.00
2022-08-07T02:48:32.473Z,101268.00
2022-08-07T02:51:29.090Z,101251.00
2022-08-07T02:54:01.696Z,101265.00
2022-08-07T02:56:33.109Z,101259.00
2022-08-07T02:59:05.875Z,101261.00
2022-08-07T03:01:36.024Z,101264.00
2022-08-07T03:04:13.014Z,101260.00
2022-08-07T03:06:48.303Z,101254.00
2022-08-07T03:09:43.294Z,101258.00
2022-08-07T03:12:07.974Z,101262.00
2022-08-07T03:14:40.775Z,101255.00
2022-08-07T03:17:16.581Z,101258.00
2022-08-07T03:19:44.090Z,101247.00
2022-08-07T03:22:29.718Z,101256.00
2022-08-07T03:25:00.300Z,101257.00
2022-08-07T03:27:30.564Z,101231.00
2022-08-07T03:30:10.818Z,101249.00
2022-08-07T03:32:58.294Z,101253.00
2022-08-07T03:35:43.691Z,101252.00
2022-08-07T03:38:21.356Z,101251.00
2022-08-07T03:40:57.719Z,101241.00
2022-08-07T03:43:26.672Z,101259.00
2022-08-07T03:46:00.026Z,101256.00
2022-08-07T03:48:31.933Z,101258.00
2022-08-07T03:51:02.257Z,101247.00
2022-08-07T03:54:01.975Z,101229.00
2022-08-07T03:56:33.001Z,101251.00
2022-08-07T03:59:09.478Z,101251.00
2022-08-07T04:01:45.733Z,101259.00
2022-08-07T04:04:17.181Z,101277.00
2022-08-07T04:06:45.246Z,101280.00
2022-08-07T04:09:15.995Z,101269.00
2022-08-07T04:12:24.346Z,101275.00
2022-08-07T04:14:38.531Z,101275.00
2022-08-07T04:17:20.243Z,101279.00
2022-08-07T04:19:51.859Z,101288.00
2022-08-07T04:22:27.583Z,101288.00
2022-08-07T04:25:01.684Z,101279.00
2022-08-07T04:27:35.951Z,101287.00
2022-08-07T04:30:21.685Z,101284.00
2022-08-07T04:33:00.680Z,101282.00
2022-08-07T04:35:28.692Z,101284.00
2022-08-07T04:38:09.272Z,101280.00
2022-08-07T04:40:43.913Z,101288.00
2022-08-07T04:43:53.427Z,101283.00
2022-08-07T04:47:04.787Z,101285.00
2022-08-07T04:50:12.720Z,101283.00
2022-08-07T04:52:51.800Z,101296.00
2022-08-07T04:58:10.890Z,101302.00
2022-08-07T04:59:17.264Z,101297.00
2022-08-07T05:02:20.692Z,101306.00
2022-08-07T05:05:00.949Z,101312.00
2022-08-07T05:08:03.786Z,101305.00
2022-08-07T05:10:36.755Z,101305.00
2022-08-07T05:14:55.525Z,101306.00
2022-08-07T05:16:07.830Z,101316.00
2022-08-07T05:18:44.142Z,101306.00
2022-08-07T05:21:14.851Z,101320.00
2022-08-07T05:23:50.154Z,101319.00
2022-08-07T05:26:24.165Z,101315.00
2022-08-07T05:28:56.378Z,101323.00
2022-08-07T05:31:34.706Z,101327.00
2022-08-07T05:34:05.639Z,101318.00
2022-08-07T05:36:42.081Z,101325.00
2022-08-07T05:40:06.793Z,101320.00
2022-08-07T05:42:01.468Z,101311.00
2022-08-07T05:44:37.744Z,101328.00
2022-08-07T05:47:38.587Z,101321.00
2022-08-07T05:50:04.210Z,101327.00
2022-08-07T05:52:33.167Z,101299.00
2022-08-07T05:55:10.149Z,101313.00
2022-08-07T05:57:42.263Z,101313.00
2022-08-07T06:00:16.518Z,101339.00
2022-08-07T06:02:50.448Z,101324.00
2022-08-07T06:05:25.800Z,101329.00
2022-08-07T06:08:14.572Z,101338.00
2022-08-07T06:10:47.040Z,101331.00
2022-08-07T06:14:10.349Z,101335.00
2022-08-07T06:16:08.740Z,101336.00
2022-08-07T06:18:39.067Z,101333.00
2022-08-07T06:22:14.805Z,101335.00
2022-08-07T06:24:52.528Z,101344.00
2022-08-07T06:26:43.392Z,101340.00
2022-08-07T06:29:10.378Z,101337.00
2022-08-07T06:31:49.548Z,101333.00
2022-08-07T06:34:19.508Z,101346.00
2022-08-07T06:36:48.067Z,101337.00
2022-08-07T06:40:16.464Z,101342.00
2022-08-07T06:42:19.192Z,101344.00
2022-08-07T06:44:51.291Z,101345.00
2022-08-07T06:47:19.622Z,101351.00
2022-08-07T06:49:51.127Z,101341.00
2022-08-07T06:52:31.429Z,101342.00
2022-08-07T06:55:31.950Z,101352.00
2022-08-07T06:58:10.281Z,101345.00
2022-08-07T07:00:42.269Z,101342.00
2022-08-07T07:03:14.316Z,101351.00
2022-08-07T07:06:05.062Z,101350.00
2022-08-07T07:08:33.175Z,101355.00
2022-08-07T07:11:13.061Z,101348.00
2022-08-07T07:13:58.044Z,101345.00
2022-08-07T07:16:45.330Z,101344.00
2022-08-07T07:19:57.428Z,101338.00
2022-08-07T07:22:34.199Z,101337.00
2022-08-07T07:25:14.274Z,101341.00
2022-08-07T07:29:38.609Z,101337.00
2022-08-07T07:31:44.605Z,101326.00
2022-08-07T07:34:30.621Z,101334.00
2022-08-07T07:37:14.273Z,101323.00
2022-08-07T07:39:55.395Z,101327.00
2022-08-07T07:42:32.571Z,101325.00
2022-08-07T07:45:04.161Z,101324.00
2022-08-07T07:47:52.306Z,101333.00
2022-08-07T07:50:34.816Z,101333.00
2022-08-07T07:53:20.143Z,101325.00
2022-08-07T07:55:57.696Z,101324.00
2022-08-07T07:58:40.368Z,101320.00
2022-08-07T08:02:02.709Z,101326.00
2022-08-07T08:04:11.256Z,101333.00
2022-08-07T08:06:50.999Z,101331.00
2022-08-07T08:09:29.415Z,101346.00
2022-08-07T08:12:03.816Z,101313.00
2022-08-07T08:14:37.019Z,101322.00
2022-08-07T08:17:32.400Z,101322.00
2022-08-07T08:20:17.569Z,101341.00
2022-08-07T08:23:12.106Z,101324.00
2022-08-07T08:26:06.867Z,101334.00
2022-08-07T08:28:43.433Z,101344.00
2022-08-07T08:31:58.573Z,101332.00
2022-08-07T08:34:12.437Z,101325.00
2022-08-07T08:36:57.714Z,101312.00
2022-08-07T08:39:39.284Z,101303.00
2022-08-07T08:42:36.877Z,101317.00
2022-08-07T08:45:41.975Z,101318.00
2022-08-07T08:48:57.348Z,101314.00
2022-08-07T08:52:12.993Z,101315.00
2022-08-07T08:54:47.580Z,101306.00
2022-08-07T08:57:35.272Z,101309.00
2022-08-07T09:00:09.404Z,101301.00
2022-08-07T09:02:39.356Z,101301.00
2022-08-07T09:05:52.929Z,101303.00
2022-08-07T09:08:49.375Z,101300.00
2022-08-07T09:11:43.527Z,101317.00
2022-08-07T09:14:50.944Z,101306.00
2022-08-07T09:17:59.348Z,101301.00
2022-08-07T09:21:03.869Z,101292.00
2022-08-07T09:24:32.305Z,101316.00
2022-08-07T09:27:28.940Z,101317.00
2022-08-07T09:30:14.758Z,101305.00
2022-08-07T09:33:52.652Z,101256.00
2022-08-07T09:36:35.682Z,101290.00
2022-08-07T09:39:55.328Z,101286.00
2022-08-07T09:42:46.682Z,101284.00
2022-08-07T09:47:26.145Z,101286.00
2022-08-07T09:50:01.603Z,101291.00
2022-08-07T09:52:34.141Z,101267.00
2022-08-07T09:56:02.862Z,101271.00
2022-08-07T09:58:52.744Z,101263.00
2022-08-07T10:01:54.715Z,101264.00
2022-08-07T10:05:14.181Z,101288.00
2022-08-07T10:08:18.292Z,101297.00
2022-08-07T10:11:58.963Z,101299.00
2022-08-07T10:14:11.271Z,101298.00
2022-08-07T10:17:28.960Z,101291.00
2022-08-07T10:20:54.683Z,101295.00
2022-08-07T10:24:18.703Z,101291.00
2022-08-07T10:27:30.249Z,101289.00
2022-08-07T10:30:25.054Z,101285.00
2022-08-07T10:34:05.532Z,101292.00
2022-08-07T10:38:00.716Z,101289.00
2022-08-07T10:41:09.828Z,101276.00
2022-08-07T10:44:07.372Z,101272.00
2022-08-07T10:47:15.866Z,101275.00
2022-08-07T10:50:29.238Z,101266.00
2022-08-07T10:53:08.361Z,101262.00
2022-08-07T10:55:53.540Z,101260.00
2022-08-07T10:58:59.725Z,101262.00
2022-08-07T11:02:12.571Z,101265.00
2022-08-07T11:05:49.178Z,101260.00
2022-08-07T11:08:52.809Z,101267.00
2022-08-07T11:11:37.706Z,101266.00
2022-08-07T11:14:43.773Z,101267.00
2022-08-07T11:17:45.821Z,101263.00
2022-08-07T11:20:49.150Z,101254.00
2022-08-07T11:23:57.318Z,101242.00
2022-08-07T11:27:13.377Z,101247.00
2022-08-07T11:30:18.024Z,101248.00
2022-08-07T11:33:02.390Z,101241.00
2022-08-07T11:35:59.485Z,101241.00
2022-08-07T11:38:50.353Z,101222.00
2022-08-07T11:42:02.327Z,101228.00
2022-08-07T11:44:52.449Z,101235.00
2022-08-07T11:48:06.001Z,101239.00
2022-08-07T11:51:44.550Z,101242.00
2022-08-07T11:54:36.027Z,101238.00
2022-08-07T11:57:59.478Z,101223.00
2022-08-07T12:00:31.375Z,101240.00
2022-08-07T12:03:42.099Z,101231.00
2022-08-07T12:06:37.056Z,101225.00
2022-08-07T12:09:38.649Z,101221.00
2022-08-07T12:12:31.648Z,101213.00
2022-08-07T12:15:03.333Z,101210.00
2022-08-07T12:18:07.967Z,101208.00
2022-08-07T12:21:03.138Z,101209.00
2022-08-07T12:24:07.575Z,101196.00
2022-08-07T12:26:54.814Z,101198.00
2022-08-07T12:29:42.757Z,101200.00
2022-08-07T12:32:23.394Z,101196.00
2022-08-07T12:34:56.238Z,101188.00
2022-08-07T12:38:11.721Z,101189.00
2022-08-07T12:40:46.443Z,101194.00
2022-08-07T12:44:01.936Z,101192.00
2022-08-07T12:46:32.571Z,101195.00
2022-08-07T12:49:40.171Z,101186.00
2022-08-07T12:52:36.423Z,101191.00
2022-08-07T12:55:41.378Z,101177.00
2022-08-07T12:58:35.522Z,101190.00
2022-08-07T13:01:32.503Z,101183.00
2022-08-07T13:04:49.208Z,101180.00
2022-08-07T13:08:22.377Z,101176.00
2022-08-07T13:12:02.005Z,101173.00
2022-08-07T13:14:50.870Z,101177.00
2022-08-07T13:17:39.843Z,101175.00
2022-08-07T13:20:27.842Z,101165.00
2022-08-07T13:24:00.634Z,101181.00
2022-08-07T13:26:21.512Z,101188.00
2022-08-07T13:29:15.477Z,101192.00
2022-08-07T13:32:06.406Z,101190.00
2022-08-07T13:35:24.065Z,101196.00
2022-08-07T13:38:36.518Z,101191.00
2022-08-07T13:41:21.045Z,101186.00
2022-08-07T13:43:52.559Z,101188.00
2022-08-07T13:46:32.906Z,101197.00
2022-08-07T13:49:08.764Z,101201.00
2022-08-07T13:52:22.745Z,101197.00
2022-08-07T13:54:49.251Z,101202.00
2022-08-07T13:57:23.975Z,101201.00
2022-08-07T13:59:55.759Z,101201.00
2022-08-07T14:02:39.846Z,101199.00
2022-08-07T14:05:23.536Z,101198.00
2022-08-07T14:08:00.846Z,101153.00
2022-08-07T14:10:41.909Z,101202.00
2022-08-07T14:13:18.515Z,101199.00
2022-08-07T14:16:06.080Z,101196.00
2022-08-07T14:18:57.032Z,101195.00
2022-08-07T14:22:03.260Z,101191.00
2022-08-07T14:24:36.312Z,101191.00
2022-08-07T14:28:09.419Z,101176.00
2022-08-07T14:30:11.816Z,101179.00
2022-08-07T14:32:58.428Z,101178.00
2022-08-07T14:38:30.535Z,101179.00
2022-08-07T14:41:34.094Z,101170.00
2022-08-07T14:44:21.983Z,101177.00
2022-08-07T14:47:08.728Z,101156.00
2022-08-07T14:49:57.319Z,101162.00
2022-08-07T14:52:30.885Z,101149.00
2022-08-07T14:55:00.490Z,101155.00
2022-08-07T14:57:58.670Z,101160.00
2022-08-07T15:03:22.242Z,101156.00
2022-08-07T15:06:09.880Z,101168.00
2022-08-07T15:08:58.457Z,101163.00
2022-08-07T15:11:52.833Z,101159.00
2022-08-07T15:14:25.514Z,101161.00
2022-08-07T15:17:04.785Z,101160.00
2022-08-07T15:20:33.292Z,101166.00
2022-08-07T15:22:53.984Z,101164.00
2022-08-07T15:25:36.940Z,101150.00
2022-08-07T15:28:36.173Z,101156.00
2022-08-07T15:31:05.656Z,101159.00
2022-08-07T15:33:38.490Z,101155.00
2022-08-07T15:36:11.689Z,101149.00
2022-08-07T15:38:58.543Z,101151.00
2022-08-07T15:42:45.977Z,101155.00
2022-08-07T15:47:16.789Z,101155.00
2022-08-07T15:50:05.090Z,101156.00
2022-08-07T15:52:38.038Z,101152.00
2022-08-07T15:55:11.670Z,101163.00
2022-08-07T15:57:49.191Z,101163.00
2022-08-07T16:00:33.587Z,101170.00
2022-08-07T16:03:47.035Z,101173.00
2022-08-07T16:06:14.055Z,101171.00
2022-08-07T16:08:47.754Z,101173.00
2022-08-07T16:12:00.761Z,101184.00
2022-08-07T16:14:59.238Z,101182.00
2022-08-07T16:18:04.561Z,101190.00
2022-08-07T16:22:01.640Z,101189.00
2022-08-07T16:24:09.247Z,101166.00
2022-08-07T16:28:09.360Z,101188.00
2022-08-07T16:31:50.691Z,101186.00
2022-08-07T16:34:38.377Z,101183.00
2022-08-07T16:38:04.938Z,101183.00
2022-08-07T16:41:06.256Z,101188.00
2022-08-07T16:44:06.218Z,101181.00
2022-08-07T16:48:06.074Z,101181.00
2022-08-07T16:51:57.641Z,101185.00
2022-08-07T16:54:40.403Z,101184.00
2022-08-07T16:58:01.863Z,101182.00
2022-08-07T17:00:50.037Z,101188.00
2022-08-07T17:03:58.528Z,101186.00
2022-08-07T17:06:42.562Z,101197.00
2022-08-07T17:10:06.421Z,101191.00
2022-08-07T17:12:46.427Z,101191.00
2022-08-07T17:15:44.693Z,101189.00
2022-08-07T17:18:46.120Z,101179.00
2022-08-07T17:21:23.689Z,101202.00
2022-08-07T17:24:23.685Z,101191.00
2022-08-07T17:27:19.784Z,101172.00
2022-08-07T17:30:20.000Z,101181.00
2022-08-07T17:34:10.082Z,101193.00
2022-08-07T17:36:32.596Z,101190.00
2022-08-07T17:39:58.374Z,101188.00
2022-08-07T17:42:59.214Z,101202.00
2022-08-07T17:45:39.718Z,101194.00
2022-08-07T17:48:31.253Z,101195.00
2022-08-07T17:51:21.360Z,101199.00
2022-08-07T17:54:29.887Z,101198.00
2022-08-07T17:57:58.981Z,101207.00
2022-08-07T18:00:34.301Z,101214.00
2022-08-07T18:03:20.908Z,101208.00
2022-08-07T18:06:09.260Z,101219.00
2022-08-07T18:09:01.918Z,101210.00
2022-08-07T18:12:20.142Z,101220.00
2022-08-07T18:15:17.058Z,101226.00
2022-08-07T18:18:45.627Z,101214.00
2022-08-07T18:21:53.529Z,101235.00
2022-08-07T18:24:51.143Z,101222.00
2022-08-07T18:28:04.632Z,101230.00
2022-08-07T18:30:44.806Z,101228.00
2022-08-07T18:34:37.854Z,101232.00
2022-08-07T18:38:57.603Z,101238.00
2022-08-07T18:40:56.180Z,101251.00
2022-08-07T18:43:57.244Z,101247.00
2022-08-07T18:47:00.040Z,101253.00
2022-08-07T18:50:40.786Z,101264.00
2022-08-07T18:53:46.802Z,101263.00
2022-08-07T18:57:30.331Z,101270.00
2022-08-07T19:00:33.401Z,101263.00
2022-08-07T19:03:18.434Z,101267.00
2022-08-07T19:06:04.029Z,101275.00
2022-08-07T19:08:46.328Z,101262.00
2022-08-07T19:11:37.771Z,101274.00
2022-08-07T19:26:29.037Z,101284.00
2022-08-07T19:30:57.029Z,101280.00
2022-08-07T19:32:10.704Z,101280.00
2022-08-07T19:34:55.140Z,101288.00
2022-08-07T19:37:25.350Z,101284.00
2022-08-07T19:40:16.838Z,101287.00
2022-08-07T19:42:59.324Z,101284.00
2022-08-07T19:46:05.930Z,101291.00
2022-08-07T19:48:18.846Z,101294.00
2022-08-07T19:50:55.288Z,101295.00
2022-08-07T19:54:32.589Z,101295.00
2022-08-07T19:58:00.224Z,101298.00
2022-08-07T19:59:11.947Z,101301.00
2022-08-07T20:01:57.618Z,101299.00
2022-08-07T20:04:37.657Z,101291.00
2022-08-07T20:07:10.098Z,101293.00
2022-08-07T20:10:35.654Z,101307.00
2022-08-07T20:12:39.332Z,101306.00
2022-08-07T20:15:22.138Z,101313.00
2022-08-07T20:18:01.505Z,101310.00
2022-08-07T20:20:33.556Z,101308.00
2022-08-07T20:23:40.644Z,101307.00
2022-08-07T20:26:10.136Z,101316.00
2022-08-07T20:28:41.364Z,101311.00
2022-08-07T20:31:21.961Z,101310.00
2022-08-07T20:33:58.728Z,101305.00
2022-08-07T20:36:30.804Z,101312.00
2022-08-07T20:39:00.275Z,101306.00
2022-08-07T20:41:34.115Z,101306.00
2022-08-07T20:44:10.392Z,101307.00
2022-08-07T20:46:44.600Z,101305.00
2022-08-07T20:49:59.540Z,101315.00
2022-08-07T20:52:16.614Z,101308.00
2022-08-07T20:54:53.186Z,101315.00
2022-08-07T20:57:28.168Z,101313.00
2022-08-07T21:00:09.205Z,101313.00
2022-08-07T21:05:54.937Z,101288.00
2022-08-07T21:08:38.225Z,101313.00
2022-08-07T21:11:16.256Z,101314.00
2022-08-07T21:14:29.536Z,101312.00
2022-08-07T21:18:01.294Z,101306.00
2022-08-07T21:20:04.405Z,101302.00
2022-08-07T21:22:45.158Z,101294.00
2022-08-07T21:25:39.038Z,101310.00
2022-08-07T21:28:16.772Z,101309.00
2022-08-07T21:31:49.916Z,101312.00
2022-08-07T21:34:48.677Z,101310.00
2022-08-07T21:38:30.318Z,101308.00
2022-08-07T21:41:14.712Z,101306.00
2022-08-07T21:44:25.365Z,101302.00
2022-08-07T21:47:12.254Z,101300.00
2022-08-07T21:50:05.190Z,101305.00
2022-08-07T21:52:54.904Z,101303.00
2022-08-07T21:55:30.220Z,101303.00
2022-08-07T21:58:22.215Z,101303.00
2022-08-07T22:01:19.904Z,101304.00
2022-08-07T22:04:09.348Z,101304.00
2022-08-07T22:07:00.662Z,101302.00
2022-08-07T22:09:38.074Z,101306.00
2022-08-07T22:12:32.556Z,101298.00
2022-08-07T22:16:44.088Z,101305.00
2022-08-07T22:18:20.653Z,101308.00
2022-08-07T22:21:21.641Z,101302.00
2022-08-07T22:24:15.777Z,101310.00
2022-08-07T22:26:49.845Z,101312.00
2022-08-07T22:29:47.473Z,101306.00
2022-08-07T22:32:42.276Z,101317.00
2022-08-07T22:35:11.804Z,101311.00
2022-08-07T22:38:10.297Z,101306.00
2022-08-07T22:41:03.496Z,101308.00
2022-08-07T22:43:56.395Z,101308.00
2022-08-07T22:47:03.378Z,101313.00
2022-08-07T22:50:07.858Z,101316.00
2022-08-07T22:52:59.804Z,101306.00
2022-08-07T22:55:59.568Z,101303.00
2022-08-07T22:59:00.672Z,101306.00
2022-08-07T23:01:49.459Z,101301.00
2022-08-07T23:04:32.746Z,101302.00
2022-08-07T23:07:40.265Z,101301.00
2022-08-07T23:10:46.987Z,101298.00
2022-08-07T23:14:09.018Z,101294.00
2022-08-07T23:16:54.899Z,101288.00
2022-08-07T23:20:14.946Z,101300.00
2022-08-07T23:24:05.086Z,101288.00
2022-08-07T23:26:23.496Z,101295.00
2022-08-07T23:30:35.908Z,101294.00
2022-08-07T23:34:20.916Z,101291.00
2022-08-07T23:36:30.326Z,101293.00
2022-08-07T23:39:42.991Z,101299.00
2022-08-07T23:42:30.459Z,101295.00
2022-08-07T23:45:43.543Z,101293.00
2022-08-07T23:48:42.073Z,101288.00
2022-08-07T23:53:01.445Z,101291.00
2022-08-07T23:54:54.446Z,101294.00
2022-08-07T23:57:42.508Z,101287.00
